createdAt,value
2018-05-02T00:00:37.942Z,84.03
2018-05-02T00:01:37.801Z,84.12
2018-05-02T00:02:37.730Z,83.94
2018-05-02T00:03:37.646Z,84.22
2018-05-02T00:04:37.564Z,84.78
2018-05-02T00:05:37.491Z,84.12
2018-05-02T00:06:37.416Z,82.89
2018-05-02T00:07:37.331Z,81.85
2018-05-02T00:08:37.262Z,81.66
2018-05-02T00:09:37.173Z,83.08
2018-05-02T00:10:37.102Z,84.31
2018-05-02T00:11:37.015Z,84.41
2018-05-02T00:12:36.944Z,85.55
2018-05-02T00:13:36.859Z,85.74
2018-05-02T00:14:36.786Z,86.97
2018-05-02T00:15:36.707Z,87.45
2018-05-02T00:16:36.624Z,87.54
2018-05-02T00:17:36.546Z,87.54
2018-05-02T00:18:36.471Z,88.01
2018-05-02T00:19:36.387Z,88.29
2018-05-02T00:20:36.311Z,87.63
2018-05-02T00:21:36.231Z,87.45
2018-05-02T00:22:36.156Z,87.06
2018-05-02T00:23:36.071Z,86.40
2018-05-02T00:24:36.000Z,86.21
2018-05-02T00:25:35.916Z,85.55
2018-05-02T00:26:35.851Z,85.45
2018-05-02T00:27:35.757Z,85.36
2018-05-02T00:28:35.723Z,85.36
2018-05-02T00:29:35.598Z,85.26
2018-05-02T00:30:35.525Z,85.74
2018-05-02T00:31:35.434Z,85.55
2018-05-02T00:32:35.364Z,85.64
2018-05-02T00:33:35.274Z,85.83
2018-05-02T00:34:35.210Z,84.78
2018-05-02T00:35:35.124Z,83.08
2018-05-02T00:36:35.053Z,83.55
2018-05-02T00:37:34.970Z,83.55
2018-05-02T00:38:34.893Z,84.03
2018-05-02T00:39:34.804Z,84.98
2018-05-02T00:40:34.736Z,85.26
2018-05-02T00:41:34.650Z,85.36
2018-05-02T00:42:34.583Z,85.74
2018-05-02T00:43:34.517Z,86.26
2018-05-02T00:44:34.427Z,86.59
2018-05-02T00:45:34.334Z,86.16
2018-05-02T00:46:34.262Z,86.16
2018-05-02T00:47:34.172Z,86.74
2018-05-02T00:48:34.104Z,87.02
2018-05-02T00:49:34.013Z,87.87
2018-05-02T00:50:33.946Z,88.54
2018-05-02T00:51:33.860Z,88.54
2018-05-02T00:52:33.787Z,88.63
2018-05-02T00:53:33.702Z,88.92
2018-05-02T00:54:33.632Z,88.35
2018-05-02T00:55:33.547Z,89.01
2018-05-02T00:56:33.472Z,89.01
2018-05-02T00:57:33.384Z,88.54
2018-05-02T00:58:33.313Z,86.64
2018-05-02T00:59:33.227Z,87.21
2018-05-02T01:00:33.156Z,86.83
2018-05-02T01:01:33.074Z,86.93
2018-05-02T01:02:32.998Z,86.83
2018-05-02T01:03:32.908Z,87.49
2018-05-02T01:04:32.838Z,87.77
2018-05-02T01:05:32.760Z,88.06
2018-05-02T01:06:32.683Z,88.73
2018-05-02T01:07:32.598Z,88.63
2018-05-02T01:08:32.524Z,87.49
2018-05-02T01:09:32.436Z,86.45
2018-05-02T01:10:32.364Z,85.69
2018-05-02T01:11:32.283Z,85.60
2018-05-02T01:12:32.205Z,84.65
2018-05-02T01:13:32.121Z,84.08
2018-05-02T01:14:32.051Z,84.27
2018-05-02T01:15:31.960Z,84.84
2018-05-02T01:16:31.898Z,85.03
2018-05-02T01:17:31.808Z,86.16
2018-05-02T01:18:31.733Z,87.21
2018-05-02T01:19:31.646Z,87.97
2018-05-02T01:20:31.573Z,88.25
2018-05-02T01:21:31.503Z,88.82
2018-05-02T01:22:31.416Z,89.29
2018-05-02T01:23:31.328Z,89.58
2018-05-02T01:24:31.256Z,89.48
2018-05-02T01:25:31.169Z,89.20
2018-05-02T01:26:31.099Z,89.39
2018-05-02T01:27:31.013Z,89.20
2018-05-02T01:28:30.939Z,89.39
2018-05-02T01:29:30.854Z,89.39
2018-05-02T01:30:30.775Z,89.29
2018-05-02T01:31:30.692Z,89.39
2018-05-02T01:32:30.622Z,88.16
2018-05-02T01:33:30.543Z,87.49
2018-05-02T01:34:30.465Z,87.30
2018-05-02T01:35:30.389Z,88.25
2018-05-02T01:36:30.305Z,88.44
2018-05-02T01:37:30.217Z,89.29
2018-05-02T01:38:30.150Z,89.39
2018-05-02T01:39:30.064Z,89.20
2018-05-02T01:40:29.986Z,89.29
2018-05-02T01:41:29.902Z,89.39
2018-05-02T01:42:29.830Z,89.53
2018-05-02T01:43:29.741Z,89.58
2018-05-02T01:44:29.671Z,89.67
2018-05-02T01:45:29.585Z,89.20
2018-05-02T01:46:29.512Z,89.20
2018-05-02T01:47:29.429Z,89.29
2018-05-02T01:48:29.356Z,89.15
2018-05-02T01:49:29.270Z,89.72
2018-05-02T01:50:29.195Z,89.25
2018-05-02T01:51:29.112Z,89.62
2018-05-02T01:52:29.038Z,89.25
2018-05-02T01:53:28.953Z,89.72
2018-05-02T01:54:28.879Z,88.96
2018-05-02T01:55:28.794Z,88.58
2018-05-02T01:56:28.722Z,89.25
2018-05-02T01:57:28.637Z,88.58
2018-05-02T01:58:28.562Z,88.68
2018-05-02T01:59:28.472Z,88.58
2018-05-02T02:00:28.402Z,88.10
2018-05-02T02:01:28.317Z,88.20
2018-05-02T02:02:28.246Z,88.77
2018-05-02T02:03:28.157Z,88.58
2018-05-02T02:04:28.086Z,88.77
2018-05-02T02:05:28.000Z,88.58
2018-05-02T02:06:27.928Z,88.68
2018-05-02T02:07:27.844Z,88.68
2018-05-02T02:08:27.769Z,88.48
2018-05-02T02:09:27.684Z,88.96
2018-05-02T02:10:27.611Z,89.53
2018-05-02T02:11:27.519Z,88.58
2018-05-02T02:12:27.452Z,87.92
2018-05-02T02:13:27.373Z,87.92
2018-05-02T02:14:27.297Z,88.20
2018-05-02T02:15:27.208Z,88.20
2018-05-02T02:16:27.134Z,88.54
2018-05-02T02:17:27.050Z,88.25
2018-05-02T02:18:26.980Z,88.54
2018-05-02T02:19:26.896Z,88.73
2018-05-02T02:20:26.824Z,89.39
2018-05-02T02:21:26.731Z,89.86
2018-05-02T02:22:26.660Z,90.24
2018-05-02T02:23:26.572Z,90.62
2018-05-02T02:24:26.507Z,91.28
2018-05-02T02:25:26.422Z,91.42
2018-05-02T02:26:26.345Z,91.33
2018-05-02T02:27:26.257Z,91.52
2018-05-02T02:28:26.190Z,91.24
2018-05-02T02:29:26.099Z,91.33
2018-05-02T02:30:26.033Z,91.24
2018-05-02T02:31:25.939Z,91.33
2018-05-02T02:32:25.869Z,91.05
2018-05-02T02:33:25.782Z,91.42
2018-05-02T02:34:25.717Z,91.71
2018-05-02T02:35:25.624Z,92.18
2018-05-02T02:36:25.552Z,91.71
2018-05-02T02:37:25.468Z,91.42
2018-05-02T02:38:25.395Z,91.42
2018-05-02T02:39:25.307Z,91.61
2018-05-02T02:40:25.233Z,91.61
2018-05-02T02:41:25.149Z,91.14
2018-05-02T02:42:25.080Z,91.33
2018-05-02T02:43:24.990Z,91.33
2018-05-02T02:44:24.924Z,91.05
2018-05-02T02:45:24.832Z,91.24
2018-05-02T02:46:24.761Z,91.42
2018-05-02T02:47:24.674Z,91.05
2018-05-02T02:48:24.614Z,91.24
2018-05-02T02:49:24.515Z,91.24
2018-05-02T02:50:24.446Z,91.71
2018-05-02T02:51:24.356Z,92.18
2018-05-02T02:52:24.287Z,91.80
2018-05-02T02:53:24.204Z,91.42
2018-05-02T02:54:24.132Z,91.52
2018-05-02T02:55:24.152Z,91.61
2018-05-02T02:56:23.970Z,91.42
2018-05-02T02:57:23.883Z,91.33
2018-05-02T02:58:23.808Z,91.33
2018-05-02T02:59:23.724Z,91.24
2018-05-02T03:00:23.649Z,91.05
2018-05-02T03:01:23.569Z,91.52
2018-05-02T03:02:23.493Z,91.90
2018-05-02T03:03:23.407Z,92.38
2018-05-02T03:04:23.336Z,91.99
2018-05-02T03:05:23.253Z,92.28
2018-05-02T03:06:23.179Z,92.38
2018-05-02T03:07:23.097Z,92.28
2018-05-02T03:08:23.026Z,92.28
2018-05-02T03:09:22.934Z,92.18
2018-05-02T03:10:22.865Z,91.90
2018-05-02T03:11:22.782Z,92.23
2018-05-02T03:12:22.707Z,91.99
2018-05-02T03:13:22.617Z,92.18
2018-05-02T03:14:22.556Z,92.14
2018-05-02T03:15:22.459Z,92.61
2018-05-02T03:16:22.388Z,92.52
2018-05-02T03:17:22.303Z,92.52
2018-05-02T03:18:22.229Z,92.42
2018-05-02T03:19:22.151Z,92.33
2018-05-02T03:20:22.072Z,92.71
2018-05-02T03:21:21.985Z,92.52
2018-05-02T03:22:21.922Z,92.71
2018-05-02T03:23:21.831Z,92.80
2018-05-02T03:24:21.753Z,92.99
2018-05-02T03:25:21.669Z,92.99
2018-05-02T03:26:21.599Z,92.52
2018-05-02T03:27:21.509Z,93.08
2018-05-02T03:28:21.444Z,92.61
2018-05-02T03:29:21.356Z,92.61
2018-05-02T03:30:21.279Z,92.33
2018-05-02T03:31:21.201Z,92.42
2018-05-02T03:32:21.124Z,91.94
2018-05-02T03:33:21.048Z,91.94
2018-05-02T03:34:21.025Z,92.42
2018-05-02T03:35:20.890Z,92.71
2018-05-02T03:36:20.812Z,93.08
2018-05-02T03:37:20.723Z,93.27
2018-05-02T03:38:20.745Z,93.08
2018-05-02T03:39:20.567Z,93.18
2018-05-02T03:40:20.550Z,92.99
2018-05-02T03:41:20.405Z,93.18
2018-05-02T03:42:20.360Z,93.18
2018-05-02T03:43:20.249Z,93.75
2018-05-02T03:44:20.273Z,93.84
2018-05-02T03:45:20.092Z,92.99
2018-05-02T03:46:20.022Z,93.84
2018-05-02T03:47:19.931Z,93.84
2018-05-02T03:48:19.891Z,93.08
2018-05-02T03:49:19.777Z,92.90
2018-05-02T03:50:19.706Z,93.18
2018-05-02T03:51:19.618Z,92.33
2018-05-02T03:52:19.608Z,92.42
2018-05-02T03:53:19.460Z,92.90
2018-05-02T03:54:19.418Z,93.08
2018-05-02T03:55:19.297Z,92.99
2018-05-02T03:56:19.330Z,93.08
2018-05-02T03:57:19.146Z,92.99
2018-05-02T03:58:19.136Z,92.99
2018-05-02T03:59:18.987Z,93.27
2018-05-02T04:00:23.553Z,92.71
2018-05-02T04:01:18.830Z,92.90
2018-05-02T04:02:20.799Z,92.99
2018-05-02T04:03:18.669Z,93.27
2018-05-02T04:04:18.599Z,93.27
2018-05-02T04:05:18.515Z,93.65
2018-05-02T04:06:18.471Z,92.61
2018-05-02T04:07:18.356Z,92.61
2018-05-02T04:08:18.281Z,93.18
2018-05-02T04:09:18.200Z,93.75
2018-05-02T04:10:18.192Z,93.84
2018-05-02T04:11:18.041Z,93.37
2018-05-02T04:12:17.969Z,93.94
2018-05-02T04:13:17.887Z,93.46
2018-05-02T04:14:17.914Z,93.75
2018-05-02T04:15:17.727Z,93.46
2018-05-02T04:16:17.722Z,93.75
2018-05-02T04:17:17.568Z,93.70
2018-05-02T04:18:17.525Z,93.80
2018-05-02T04:19:17.412Z,93.70
2018-05-02T04:20:17.438Z,93.60
2018-05-02T04:21:17.258Z,93.32
2018-05-02T04:22:17.186Z,93.70
2018-05-02T04:23:17.097Z,94.18
2018-05-02T04:24:17.027Z,93.70
2018-05-02T04:25:16.937Z,94.08
2018-05-02T04:26:16.869Z,93.70
2018-05-02T04:27:16.782Z,93.70
2018-05-02T04:28:16.710Z,93.60
2018-05-02T04:29:16.623Z,93.51
2018-05-02T04:30:16.556Z,93.99
2018-05-02T04:31:16.467Z,93.70
2018-05-02T04:32:16.400Z,93.60
2018-05-02T04:33:16.313Z,93.60
2018-05-02T04:34:16.240Z,93.70
2018-05-02T04:35:16.160Z,93.70
2018-05-02T04:36:16.083Z,93.41
2018-05-02T04:37:15.996Z,93.60
2018-05-02T04:38:15.928Z,93.80
2018-05-02T04:39:15.837Z,93.99
2018-05-02T04:40:15.826Z,93.89
2018-05-02T04:41:15.681Z,93.80
2018-05-02T04:42:15.638Z,93.80
2018-05-02T04:43:15.525Z,93.51
2018-05-02T04:44:15.540Z,93.41
2018-05-02T04:45:15.367Z,93.23
2018-05-02T04:46:15.363Z,92.66
2018-05-02T04:47:15.207Z,92.56
2018-05-02T04:48:15.163Z,93.13
2018-05-02T04:49:15.059Z,93.13
2018-05-02T04:50:15.071Z,92.85
2018-05-02T04:51:14.896Z,92.66
2018-05-02T04:52:14.884Z,92.28
2018-05-02T04:53:14.746Z,92.56
2018-05-02T04:54:14.666Z,92.37
2018-05-02T04:55:14.629Z,92.75
2018-05-02T04:56:14.601Z,92.94
2018-05-02T04:57:14.424Z,92.56
2018-05-02T04:58:14.408Z,92.85
2018-05-02T04:59:14.268Z,92.32
2018-05-02T05:00:14.217Z,92.09
2018-05-02T05:01:14.113Z,91.94
2018-05-02T05:02:14.127Z,92.23
2018-05-02T05:03:13.958Z,92.32
2018-05-02T05:04:13.945Z,92.13
2018-05-02T05:05:13.796Z,92.32
2018-05-02T05:06:13.746Z,92.23
2018-05-02T05:07:13.645Z,92.23
2018-05-02T05:08:13.654Z,92.42
2018-05-02T05:09:13.482Z,92.32
2018-05-02T05:10:13.461Z,92.23
2018-05-02T05:11:13.328Z,91.85
2018-05-02T05:12:13.277Z,91.56
2018-05-02T05:13:13.171Z,91.94
2018-05-02T05:14:13.182Z,92.13
2018-05-02T05:15:13.015Z,92.23
2018-05-02T05:16:13.010Z,91.85
2018-05-02T05:17:12.861Z,92.42
2018-05-02T05:18:12.789Z,92.13
2018-05-02T05:19:12.700Z,91.75
2018-05-02T05:20:12.631Z,91.38
2018-05-02T05:21:12.541Z,90.52
2018-05-02T05:22:12.473Z,89.76
2018-05-02T05:23:12.386Z,90.05
2018-05-02T05:24:12.316Z,90.80
2018-05-02T05:25:12.231Z,91.28
2018-05-02T05:26:12.164Z,91.66
2018-05-02T05:27:12.073Z,90.99
2018-05-02T05:28:12.090Z,92.51
2018-05-02T05:29:11.917Z,92.32
2018-05-02T05:30:11.851Z,91.94
2018-05-02T05:31:11.763Z,91.47
2018-05-02T05:32:11.694Z,91.19
2018-05-02T05:33:11.604Z,90.47
2018-05-02T05:34:11.536Z,90.61
2018-05-02T05:35:11.525Z,91.13
2018-05-02T05:36:11.380Z,91.52
2018-05-02T05:37:11.294Z,90.56
2018-05-02T05:38:11.225Z,90.00
2018-05-02T05:39:11.136Z,91.61
2018-05-02T05:40:11.066Z,91.52
2018-05-02T05:41:10.982Z,90.47
2018-05-02T05:42:10.913Z,90.94
2018-05-02T05:43:10.822Z,90.85
2018-05-02T05:44:10.755Z,90.66
2018-05-02T05:45:10.670Z,89.90
2018-05-02T05:46:10.599Z,89.42
2018-05-02T05:47:10.510Z,88.09
2018-05-02T05:48:10.439Z,86.57
2018-05-02T05:49:10.356Z,86.10
2018-05-02T05:50:10.286Z,86.67
2018-05-02T05:51:10.199Z,86.67
2018-05-02T05:52:10.128Z,87.71
2018-05-02T05:53:10.045Z,87.90
2018-05-02T05:54:10.071Z,88.67
2018-05-02T05:55:09.888Z,88.67
2018-05-02T05:56:09.815Z,88.19
2018-05-02T05:57:09.736Z,87.52
2018-05-02T05:58:09.660Z,86.76
2018-05-02T05:59:09.574Z,86.00
2018-05-02T06:00:09.506Z,87.34
2018-05-02T06:01:09.418Z,88.28
2018-05-02T06:02:09.352Z,87.90
2018-05-02T06:03:09.263Z,87.71
2018-05-02T06:04:09.200Z,87.14
2018-05-02T06:05:09.113Z,86.19
2018-05-02T06:06:09.038Z,86.10
2018-05-02T06:07:08.951Z,87.24
2018-05-02T06:08:08.887Z,87.19
2018-05-02T06:09:08.798Z,87.09
2018-05-02T06:10:08.728Z,87.66
2018-05-02T06:11:08.644Z,87.76
2018-05-02T06:12:08.569Z,87.85
2018-05-02T06:13:08.484Z,87.09
2018-05-02T06:14:08.434Z,87.09
2018-05-02T06:15:08.331Z,87.28
2018-05-02T06:16:08.261Z,87.28
2018-05-02T06:17:08.176Z,86.90
2018-05-02T06:18:08.104Z,86.05
2018-05-02T06:19:08.025Z,85.47
2018-05-02T06:20:07.948Z,84.62
2018-05-02T06:21:07.863Z,83.76
2018-05-02T06:22:07.797Z,83.39
2018-05-02T06:23:07.715Z,84.05
2018-05-02T06:24:07.630Z,84.24
2018-05-02T06:25:07.660Z,83.19
2018-05-02T06:26:07.475Z,82.71
2018-05-02T06:27:07.409Z,83.95
2018-05-02T06:28:07.319Z,84.24
2018-05-02T06:29:07.250Z,85.10
2018-05-02T06:30:07.165Z,86.24
2018-05-02T06:31:07.093Z,85.66
2018-05-02T06:32:07.010Z,84.91
2018-05-02T06:33:06.944Z,85.00
2018-05-02T06:34:06.855Z,86.24
2018-05-02T06:35:06.786Z,86.14
2018-05-02T06:36:06.700Z,86.61
2018-05-02T06:37:06.628Z,86.24
2018-05-02T06:38:06.544Z,85.42
2018-05-02T06:39:06.473Z,84.09
2018-05-02T06:40:06.389Z,82.00
2018-05-02T06:41:06.320Z,81.81
2018-05-02T06:42:06.235Z,80.66
2018-05-02T06:43:06.163Z,80.00
2018-05-02T06:44:06.090Z,79.43
2018-05-02T06:45:06.011Z,80.00
2018-05-02T06:46:05.921Z,79.81
2018-05-02T06:47:06.437Z,80.19
2018-05-02T06:48:05.773Z,79.24
2018-05-02T06:49:05.694Z,79.33
2018-05-02T06:50:05.617Z,79.72
2018-05-02T06:51:05.547Z,80.57
2018-05-02T06:52:05.460Z,80.86
2018-05-02T06:53:05.394Z,80.66
2018-05-02T06:54:05.305Z,80.00
2018-05-02T06:55:05.233Z,78.61
2018-05-02T06:56:05.149Z,77.37
2018-05-02T06:57:05.081Z,76.33
2018-05-02T06:58:04.994Z,76.14
2018-05-02T06:59:04.931Z,76.52
2018-05-02T07:00:04.843Z,76.23
2018-05-02T07:01:04.773Z,75.76
2018-05-02T07:02:04.690Z,75.57
2018-05-02T07:03:04.616Z,75.09
2018-05-02T07:04:04.533Z,75.38
2018-05-02T07:05:04.463Z,76.14
2018-05-02T07:06:04.378Z,76.81
2018-05-02T07:07:04.312Z,75.28
2018-05-02T07:08:04.225Z,75.67
2018-05-02T07:09:04.161Z,75.76
2018-05-02T07:10:04.079Z,75.47
2018-05-02T07:11:03.997Z,75.38
2018-05-02T07:12:03.916Z,75.42
2018-05-02T07:13:04.853Z,75.23
2018-05-02T07:14:03.760Z,75.79
2018-05-02T07:15:03.701Z,75.79
2018-05-02T07:16:03.612Z,75.79
2018-05-02T07:17:03.537Z,75.89
2018-05-02T07:18:03.454Z,74.84
2018-05-02T07:19:03.381Z,74.37
2018-05-02T07:20:03.302Z,74.37
2018-05-02T07:21:03.229Z,74.84
2018-05-02T07:22:03.146Z,75.60
2018-05-02T07:23:03.077Z,75.42
2018-05-02T07:24:03.019Z,76.18
2018-05-02T07:25:02.929Z,76.65
2018-05-02T07:26:02.835Z,75.89
2018-05-02T07:27:02.772Z,74.56
2018-05-02T07:28:02.684Z,74.65
2018-05-02T07:29:02.616Z,75.51
2018-05-02T07:30:02.533Z,75.89
2018-05-02T07:31:02.461Z,74.75
2018-05-02T07:32:02.378Z,74.46
2018-05-02T07:33:02.355Z,72.94
2018-05-02T07:34:02.226Z,72.65
2018-05-02T07:35:02.159Z,72.94
2018-05-02T07:36:02.073Z,72.56
2018-05-02T07:37:02.005Z,72.75
2018-05-02T07:38:01.920Z,72.75
2018-05-02T07:39:01.851Z,72.94
2018-05-02T07:40:01.762Z,72.75
2018-05-02T07:41:01.696Z,72.65
2018-05-02T07:42:01.616Z,72.60
2018-05-02T07:43:01.544Z,72.21
2018-05-02T07:44:01.460Z,72.88
2018-05-02T07:45:01.385Z,73.93
2018-05-02T07:46:01.304Z,72.88
2018-05-02T07:47:01.233Z,72.97
2018-05-02T07:48:01.149Z,72.60
2018-05-02T07:49:01.104Z,72.78
2018-05-02T07:50:01.001Z,72.50
2018-05-02T07:51:00.929Z,72.21
2018-05-02T07:52:00.850Z,72.21
2018-05-02T07:53:00.781Z,72.31
2018-05-02T07:54:00.694Z,71.07
2018-05-02T07:55:00.625Z,71.26
2018-05-02T07:56:00.543Z,71.55
2018-05-02T07:57:00.495Z,71.64
2018-05-02T07:58:00.395Z,71.36
2018-05-02T07:59:00.316Z,71.87
2018-05-02T08:00:00.232Z,71.87
2018-05-02T08:01:00.160Z,73.01
2018-05-02T08:02:00.079Z,72.06
2018-05-02T08:03:00.011Z,71.68
2018-05-02T08:03:59.924Z,71.30
2018-05-02T08:04:59.857Z,70.82
2018-05-02T08:05:59.773Z,71.96
2018-05-02T08:06:59.705Z,71.20
2018-05-02T08:07:59.622Z,70.63
2018-05-02T08:08:59.552Z,70.47
2018-05-02T08:09:59.471Z,69.52
2018-05-02T08:10:59.440Z,69.52
2018-05-02T08:11:59.316Z,69.71
2018-05-02T08:12:59.246Z,68.47
2018-05-02T08:13:59.166Z,68.38
2018-05-02T08:14:59.099Z,69.74
2018-05-02T08:15:59.012Z,70.51
2018-05-02T08:16:58.940Z,68.98
2018-05-02T08:17:58.858Z,68.03
2018-05-02T08:18:58.791Z,67.07
2018-05-02T08:19:58.707Z,66.78
2018-05-02T08:20:58.640Z,66.72
2018-05-02T08:21:58.629Z,66.92
2018-05-02T08:22:58.486Z,69.31
2018-05-02T08:23:58.404Z,69.02
2018-05-02T08:24:58.342Z,67.68
2018-05-02T08:25:58.254Z,66.85
2018-05-02T08:26:58.185Z,66.19
2018-05-02T08:27:58.103Z,66.09
2018-05-02T08:28:58.041Z,66.28
2018-05-02T08:29:57.951Z,64.47
2018-05-02T08:30:57.885Z,65.07
2018-05-02T08:31:57.803Z,64.40
2018-05-02T08:32:57.787Z,64.98
2018-05-02T08:33:57.652Z,64.31
2018-05-02T08:34:57.584Z,62.49
2018-05-02T08:35:57.500Z,62.59
2018-05-02T08:36:57.434Z,62.78
2018-05-02T08:37:57.350Z,61.54
2018-05-02T08:38:57.374Z,61.06
2018-05-02T08:39:57.204Z,61.06
2018-05-02T08:40:57.133Z,62.52
2018-05-02T08:41:57.053Z,64.34
2018-05-02T08:42:56.983Z,64.43
2018-05-02T08:43:56.903Z,65.30
2018-05-02T08:44:56.838Z,62.81
2018-05-02T08:45:56.748Z,63.89
2018-05-02T08:46:56.689Z,64.18
2018-05-02T08:47:56.601Z,62.74
2018-05-02T08:48:56.537Z,59.72
2018-05-02T08:49:56.530Z,58.09
2018-05-02T08:50:56.389Z,59.91
2018-05-02T08:51:56.305Z,60.03
2018-05-02T08:52:56.235Z,60.80
2018-05-02T08:53:56.162Z,60.70
2018-05-02T08:54:56.085Z,59.45
2018-05-02T08:55:56.010Z,57.28
2018-05-02T08:56:55.943Z,56.99
2018-05-02T08:57:55.860Z,59.68
2018-05-02T08:58:55.793Z,58.91
2018-05-02T08:59:55.712Z,57.48
2018-05-02T09:00:55.648Z,57.38
2018-05-02T09:01:55.639Z,56.90
2018-05-02T09:02:55.501Z,56.71
2018-05-02T09:03:55.418Z,56.90
2018-05-02T09:04:55.357Z,56.32
2018-05-02T09:05:55.270Z,56.81
2018-05-02T09:06:55.205Z,55.85
2018-05-02T09:07:55.124Z,54.70
2018-05-02T09:08:55.134Z,56.42
2018-05-02T09:09:54.977Z,58.05
2018-05-02T09:10:54.913Z,56.61
2018-05-02T09:11:54.831Z,56.16
2018-05-02T09:12:54.763Z,57.50
2018-05-02T09:13:54.690Z,56.64
2018-05-02T09:14:54.619Z,57.50
2018-05-02T09:15:54.541Z,58.78
2018-05-02T09:16:54.478Z,57.72
2018-05-02T09:17:54.407Z,55.62
2018-05-02T09:18:54.325Z,55.42
2018-05-02T09:19:54.249Z,55.23
2018-05-02T09:20:54.184Z,53.99
2018-05-02T09:21:54.102Z,53.60
2018-05-02T09:22:54.037Z,54.37
2018-05-02T09:23:53.952Z,55.80
2018-05-02T09:24:53.891Z,56.29
2018-05-02T09:25:53.813Z,54.85
2018-05-02T09:26:53.746Z,55.62
2018-05-02T09:27:53.666Z,57.34
2018-05-02T09:28:53.603Z,55.13
2018-05-02T09:29:53.522Z,53.41
2018-05-02T09:30:53.458Z,53.70
2018-05-02T09:31:53.379Z,53.91
2018-05-02T09:32:53.312Z,53.82
2018-05-02T09:33:53.237Z,53.63
2018-05-02T09:34:53.195Z,53.91
2018-05-02T09:35:53.091Z,54.97
2018-05-02T09:36:53.019Z,54.21
2018-05-02T09:37:52.953Z,53.05
2018-05-02T09:38:52.870Z,53.24
2018-05-02T09:39:52.807Z,54.30
2018-05-02T09:40:52.728Z,55.83
2018-05-02T09:41:52.663Z,56.05
2018-05-02T09:42:52.584Z,54.33
2018-05-02T09:43:52.528Z,53.94
2018-05-02T09:44:52.445Z,52.40
2018-05-02T09:45:52.378Z,51.45
2018-05-02T09:46:52.296Z,52.40
2018-05-02T09:47:52.228Z,53.46
2018-05-02T09:48:52.149Z,54.90
2018-05-02T09:49:52.086Z,53.36
2018-05-02T09:50:52.012Z,51.35
2018-05-02T09:51:51.949Z,50.10
2018-05-02T09:52:51.866Z,52.31
2018-05-02T09:53:51.805Z,53.85
2018-05-02T09:54:51.723Z,52.31
2018-05-02T09:55:51.657Z,54.04
2018-05-02T09:56:51.583Z,53.66
2018-05-02T09:57:51.520Z,53.63
2018-05-02T09:58:51.437Z,52.00
2018-05-02T09:59:51.374Z,53.15
2018-05-02T10:00:51.296Z,55.16
2018-05-02T10:01:51.232Z,55.93
2018-05-02T10:02:51.156Z,54.97
2018-05-02T10:03:51.084Z,54.68
2018-05-02T10:04:51.012Z,53.91
2018-05-02T10:05:50.961Z,52.28
2018-05-02T10:06:50.864Z,53.82
2018-05-02T10:07:50.873Z,53.17
2018-05-02T10:08:50.721Z,53.27
2018-05-02T10:09:50.683Z,55.00
2018-05-02T10:10:50.583Z,53.94
2018-05-02T10:11:50.591Z,50.96
2018-05-02T10:12:50.464Z,51.67
2018-05-02T10:13:50.398Z,50.87
2018-05-02T10:14:50.295Z,50.23
2018-05-02T10:15:50.314Z,51.86
2018-05-02T10:16:50.154Z,53.30
2018-05-02T10:17:50.098Z,53.30
2018-05-02T10:18:50.007Z,52.26
2018-05-02T10:19:50.034Z,50.63
2018-05-02T10:20:49.873Z,50.82
2018-05-02T10:21:49.842Z,50.54
2018-05-02T10:22:49.730Z,51.72
2018-05-02T10:23:49.754Z,53.16
2018-05-02T10:24:49.584Z,53.35
2018-05-02T10:25:49.564Z,50.08
2018-05-02T10:26:49.440Z,48.93
2018-05-02T10:27:49.477Z,48.16
2018-05-02T10:28:49.301Z,49.53
2018-05-02T10:29:49.284Z,48.38
2018-05-02T10:30:49.159Z,49.63
2018-05-02T10:31:49.197Z,51.84
2018-05-02T10:32:49.018Z,50.68
2018-05-02T10:33:49.014Z,49.53
2018-05-02T10:34:48.880Z,50.59
2018-05-02T10:35:48.918Z,50.59
2018-05-02T10:36:48.748Z,50.30
2018-05-02T10:37:48.719Z,51.57
2018-05-02T10:38:48.600Z,50.81
2018-05-02T10:39:48.638Z,48.49
2018-05-02T10:40:48.458Z,50.04
2018-05-02T10:41:48.448Z,45.90
2018-05-02T10:42:48.315Z,45.32
2018-05-02T10:43:48.358Z,45.80
2018-05-02T10:44:48.184Z,46.95
2018-05-02T10:45:48.166Z,48.30
2018-05-02T10:46:48.040Z,49.36
2018-05-02T10:47:48.077Z,49.65
2018-05-02T10:48:47.897Z,47.05
2018-05-02T10:49:47.891Z,45.99
2018-05-02T10:50:47.762Z,46.95
2018-05-02T10:51:47.799Z,47.82
2018-05-02T10:52:47.620Z,47.82
2018-05-02T10:53:47.606Z,47.05
2018-05-02T10:54:47.480Z,49.55
2018-05-02T10:55:47.522Z,47.72
2018-05-02T10:56:47.340Z,45.90
2018-05-02T11:00:37.560Z,48.40
2018-05-02T11:01:37.527Z,47.24
2018-05-02T11:02:37.400Z,48.59
2018-05-02T11:03:37.439Z,48.57
2018-05-02T11:04:37.258Z,48.66
2018-05-02T11:05:37.243Z,47.31
2018-05-02T11:06:37.121Z,46.06
2018-05-02T11:07:37.159Z,47.61
2018-05-02T11:08:36.983Z,46.84
2018-05-02T11:09:36.907Z,46.55
2018-05-02T11:10:36.874Z,47.89
2018-05-02T11:11:36.772Z,48.57
2018-05-02T11:12:36.708Z,48.85
2018-05-02T11:13:36.629Z,48.95
2018-05-02T11:14:36.593Z,48.66
2018-05-02T11:15:36.495Z,47.61
2018-05-02T11:16:36.505Z,47.89
2018-05-02T11:17:36.360Z,47.15
2018-05-02T11:18:36.313Z,48.79
2018-05-02T11:19:36.215Z,49.17
2018-05-02T11:20:36.229Z,47.44
2018-05-02T11:21:36.070Z,48.79
2018-05-02T11:22:36.033Z,48.88
2018-05-02T11:23:35.939Z,47.63
2018-05-02T11:24:35.941Z,46.38
2018-05-02T11:25:35.804Z,45.90
2018-05-02T11:26:35.757Z,48.30
2018-05-02T11:27:35.659Z,50.71
2018-05-02T11:28:35.586Z,51.29
2018-05-02T11:29:35.568Z,49.74
2018-05-02T11:30:35.453Z,48.02
2018-05-02T11:31:35.483Z,47.63
2018-05-02T11:32:35.308Z,49.07
2018-05-02T11:33:35.291Z,50.04
2018-05-02T11:34:35.218Z,48.88
2018-05-02T11:35:35.202Z,48.69
2018-05-02T11:36:35.040Z,48.40
2018-05-02T11:37:35.007Z,48.69
2018-05-02T11:38:34.889Z,49.82
2018-05-02T11:39:34.923Z,48.28
2018-05-02T11:40:34.756Z,48.38
2018-05-02T11:41:34.733Z,48.95
2018-05-02T11:42:34.616Z,49.53
2018-05-02T11:43:34.642Z,47.89
2018-05-02T11:44:34.476Z,49.89
2018-05-02T11:45:34.452Z,49.60
2018-05-02T11:46:34.335Z,50.27
2018-05-02T11:47:34.361Z,52.39
2018-05-02T11:48:34.195Z,53.35
2018-05-02T11:49:34.174Z,53.16
2018-05-02T11:50:34.058Z,52.68
2018-05-02T11:51:34.090Z,53.35
2018-05-02T11:52:33.948Z,53.35
2018-05-02T11:53:33.891Z,52.39
2018-05-02T11:54:33.775Z,53.06
2018-05-02T11:55:33.803Z,51.43
2018-05-02T11:56:33.641Z,50.95
2018-05-02T11:57:33.612Z,49.99
2018-05-02T11:58:33.499Z,50.85
2018-05-02T11:59:33.522Z,52.20
2018-05-02T12:00:33.358Z,51.53
2018-05-02T12:01:33.333Z,53.54
2018-05-02T12:02:33.225Z,54.22
2018-05-02T12:03:33.267Z,54.02
2018-05-02T12:04:33.089Z,53.25
2018-05-02T12:05:33.053Z,53.35
2018-05-02T12:06:32.942Z,54.22
2018-05-02T12:07:32.966Z,56.23
2018-05-02T12:08:32.804Z,54.12
2018-05-02T12:09:32.775Z,52.68
2018-05-02T12:10:32.783Z,50.68
2018-05-02T12:11:32.683Z,51.45
2018-05-02T12:12:32.519Z,52.51
2018-05-02T12:13:32.454Z,51.84
2018-05-02T12:14:32.577Z,51.35
2018-05-02T12:15:32.316Z,50.68
2018-05-02T12:16:32.311Z,52.51
2018-05-02T12:17:32.171Z,51.64
2018-05-02T12:18:32.219Z,50.20
2018-05-02T12:19:32.037Z,52.61
2018-05-02T12:20:32.035Z,53.11
2018-05-02T12:21:31.903Z,50.99
2018-05-02T12:22:31.941Z,50.71
2018-05-02T12:23:31.753Z,51.48
2018-05-02T12:24:31.687Z,51.48
2018-05-02T12:25:31.620Z,51.19
2018-05-02T12:26:31.664Z,51.57
2018-05-02T12:27:31.478Z,50.59
2018-05-02T12:28:31.475Z,47.51
2018-05-02T12:29:31.338Z,47.13
2018-05-02T12:30:31.380Z,48.47
2018-05-02T12:31:31.203Z,49.33
2018-05-02T12:32:31.246Z,50.30
2018-05-02T12:33:31.055Z,50.78
2018-05-02T12:34:31.106Z,50.40
2018-05-02T12:35:30.958Z,50.59
2018-05-02T12:36:30.915Z,51.57
2018-05-02T12:37:30.785Z,50.23
2018-05-02T12:38:30.824Z,48.59
2018-05-02T12:39:30.651Z,47.82
2018-05-02T12:40:30.635Z,48.40
2018-05-02T12:41:30.510Z,48.88
2018-05-02T12:42:30.547Z,48.69
2018-05-02T12:43:30.370Z,49.74
2018-05-02T12:44:30.354Z,48.30
2018-05-02T12:45:30.228Z,48.59
2018-05-02T12:46:30.266Z,51.38
2018-05-02T12:47:30.090Z,50.71
2018-05-02T12:48:30.074Z,50.51
2018-05-02T12:49:29.949Z,52.63
2018-05-02T12:50:29.988Z,51.76
2018-05-02T12:51:29.819Z,50.23
2018-05-02T12:52:29.798Z,48.69
2018-05-02T12:53:29.670Z,48.49
2018-05-02T12:54:29.704Z,49.46